sensor_id;sensor_type;location;lat;lon;timestamp;pressure;altitude;pressure_sealevel;temperature;humidity
40998;BME280;26740;45.944;12.480;2023-03-03T00:01:23;101266.38;;;3.22;100.00
40998;BME280;26740;45.944;12.480;2023-03-03T00:03:52;101269.13;;;3.22;100.00
40998;BME280;26740;45.944;12.480;2023-03-03T00:06:18;101268.94;;;3.09;100.00
40998;BME280;26740;45.944;12.480;2023-03-03T00:08:44;101271.03;;;3.07;100.00
40998;BME280;26740;45.944;12.480;2023-03-03T00:11:10;101264.16;;;3.11;100.00
40998;BME280;26740;45.944;12.480;2023-03-03T00:13:55;101260.34;;;3.12;100.00
40998;BME280;26740;45.944;12.480;2023-03-03T00:16:34;101261.59;;;3.09;100.00
40998;BME280;26740;45.944;12.480;2023-03-03T00:19:01;101267.38;;;2.99;100.00
40998;BME280;26740;45.944;12.480;2023-03-03T00:21:34;101263.97;;;2.97;100.00
40998;BME280;26740;45.944;12.480;2023-03-03T00:24:17;101262.84;;;2.92;100.00
40998;BME280;26740;45.944;12.480;2023-03-03T00:26:48;101267.28;;;2.93;100.00
40998;BME280;26740;45.944;12.480;2023-03-03T00:29:33;101265.13;;;2.88;100.00
40998;BME280;26740;45.944;12.480;2023-03-03T00:32:17;101260.97;;;2.92;100.00
40998;BME280;26740;45.944;12.480;2023-03-03T00:34:46;101258.16;;;2.71;100.00
40998;BME280;26740;45.944;12.480;2023-03-03T00:37:33;101258.72;;;2.66;100.00
40998;BME280;26740;45.944;12.480;2023-03-03T00:42:39;101254.28;;;2.65;100.00
40998;BME280;26740;45.944;12.480;2023-03-03T00:45:30;101251.53;;;2.50;100.00
40998;BME280;26740;45.944;12.480;2023-03-03T00:47:57;101248.91;;;2.57;100.00
40998;BME280;26740;45.944;12.480;2023-03-03T00:50:32;101249.69;;;2.51;100.00
40998;BME280;26740;45.944;12.480;2023-03-03T00:55:27;101246.72;;;2.52;100.00
40998;BME280;26740;45.944;12.480;2023-03-03T00:57:53;101240.00;;;2.40;100.00
40998;BME280;26740;45.944;12.480;2023-03-03T01:00:18;101233.31;;;2.42;100.00
40998;BME280;26740;45.944;12.480;2023-03-03T01:02:44;101230.75;;;2.41;100.00
40998;BME280;26740;45.944;12.480;2023-03-03T01:05:15;101229.63;;;2.35;100.00
40998;BME280;26740;45.944;12.480;2023-03-03T01:07:42;101231.31;;;2.36;100.00
40998;BME280;26740;45.944;12.480;2023-03-03T01:10:08;101232.84;;;2.39;100.00
40998;BME280;26740;45.944;12.480;2023-03-03T01:12:34;101215.00;;;2.28;100.00
40998;BME280;26740;45.944;12.480;2023-03-03T01:15:00;101228.41;;;2.23;100.00
40998;BME280;26740;45.944;12.480;2023-03-03T01:17:26;101230.28;;;2.22;100.00
40998;BME280;26740;45.944;12.480;2023-03-03T01:19:53;101228.28;;;2.16;100.00
40998;BME280;26740;45.944;12.480;2023-03-03T01:22:18;101220.53;;;2.20;100.00
40998;BME280;26740;45.944;12.480;2023-03-03T01:24:44;101222.59;;;2.03;100.00
40998;BME280;26740;45.944;12.480;2023-03-03T01:27:09;101222.53;;;2.11;100.00
40998;BME280;26740;45.944;12.480;2023-03-03T01:29:35;101215.72;;;2.07;100.00
40998;BME280;26740;45.944;12.480;2023-03-03T01:32:00;101210.44;;;2.05;100.00
40998;BME280;26740;45.944;12.480;2023-03-03T01:34:26;101213.16;;;2.05;100.00
40998;BME280;26740;45.944;12.480;2023-03-03T01:36:51;101205.81;;;2.06;100.00
40998;BME280;26740;45.944;12.480;2023-03-03T01:39:17;101204.56;;;1.94;100.00
40998;BME280;26740;45.944;12.480;2023-03-03T01:41:42;101201.53;;;1.88;100.00
40998;BME280;26740;45.944;12.480;2023-03-03T01:44:13;101198.59;;;1.90;100.00
40998;BME280;26740;45.944;12.480;2023-03-03T01:46:56;101192.09;;;1.91;100.00
40998;BME280;26740;45.944;12.480;2023-03-03T01:49:25;101191.41;;;1.74;100.00
40998;BME280;26740;45.944;12.480;2023-03-03T01:51:55;101180.91;;;1.63;100.00
40998;BME280;26740;45.944;12.480;2023-03-03T01:54:29;101179.97;;;1.70;100.00
40998;BME280;26740;45.944;12.480;2023-03-03T01:56:58;101188.88;;;1.49;100.00
40998;BME280;26740;45.944;12.480;2023-03-03T01:59:31;101181.53;;;1.50;100.00
40998;BME280;26740;45.944;12.480;2023-03-03T02:01:59;101177.78;;;1.66;100.00
40998;BME280;26740;45.944;12.480;2023-03-03T02:04:25;101179.03;;;1.78;100.00
40998;BME280;26740;45.944;12.480;2023-03-03T02:06:57;101177.06;;;1.87;100.00
40998;BME280;26740;45.944;12.480;2023-03-03T02:09:34;101173.97;;;1.90;100.00
40998;BME280;26740;45.944;12.480;2023-03-03T02:12:06;101167.56;;;1.98;100.00
40998;BME280;26740;45.944;12.480;2023-03-03T02:14:33;101166.78;;;2.04;100.00
40998;BME280;26740;45.944;12.480;2023-03-03T02:16:59;101164.91;;;2.04;100.00
40998;BME280;26740;45.944;12.480;2023-03-03T02:22:25;101160.84;;;1.85;100.00
40998;BME280;26740;45.944;12.480;2023-03-03T02:24:59;101157.81;;;1.80;100.00
40998;BME280;26740;45.944;12.480;2023-03-03T02:27:28;101155.34;;;1.70;100.00
40998;BME280;26740;45.944;12.480;2023-03-03T02:29:55;101156.75;;;1.66;100.00
40998;BME280;26740;45.944;12.480;2023-03-03T02:32:21;101155.16;;;1.72;100.00
40998;BME280;26740;45.944;12.480;2023-03-03T02:34:49;101155.63;;;1.61;100.00
40998;BME280;26740;45.944;12.480;2023-03-03T02:37:15;101148.91;;;1.63;100.00
40998;BME280;26740;45.944;12.480;2023-03-03T02:39:42;101150.22;;;1.52;100.00
40998;BME280;26740;45.944;12.480;2023-03-03T02:42:14;101144.94;;;1.51;100.00
40998;BME280;26740;45.944;12.480;2023-03-03T02:44:42;101139.16;;;1.46;100.00
40998;BME280;26740;45.944;12.480;2023-03-03T02:47:08;101132.91;;;1.37;100.00
40998;BME280;26740;45.944;12.480;2023-03-03T02:49:34;101131.31;;;1.43;100.00
40998;BME280;26740;45.944;12.480;2023-03-03T02:52:03;101126.91;;;1.42;100.00
40998;BME280;26740;45.944;12.480;2023-03-03T02:54:30;101124.16;;;1.42;100.00
40998;BME280;26740;45.944;12.480;2023-03-03T02:56:56;101126.41;;;1.38;100.00
40998;BME280;26740;45.944;12.480;2023-03-03T02:59:22;101125.94;;;1.35;100.00
40998;BME280;26740;45.944;12.480;2023-03-03T03:01:48;101126.72;;;1.43;100.00
40998;BME280;26740;45.944;12.480;2023-03-03T03:04:16;101120.59;;;1.41;100.00
40998;BME280;26740;45.944;12.480;2023-03-03T03:06:43;101122.75;;;1.46;100.00
40998;BME280;26740;45.944;12.480;2023-03-03T03:09:11;101123.31;;;1.41;100.00
40998;BME280;26740;45.944;12.480;2023-03-03T03:11:37;101112.38;;;1.41;100.00
40998;BME280;26740;45.944;12.480;2023-03-03T03:14:07;101116.59;;;1.44;100.00
40998;BME280;26740;45.944;12.480;2023-03-03T03:16:33;101115.47;;;1.38;100.00
40998;BME280;26740;45.944;12.480;2023-03-03T03:18:59;101118.28;;;1.30;100.00
40998;BME280;26740;45.944;12.480;2023-03-03T03:21:26;101117.97;;;1.25;100.00
40998;BME280;26740;45.944;12.480;2023-03-03T03:23:51;101117.59;;;1.28;100.00
40998;BME280;26740;45.944;12.480;2023-03-03T03:26:17;101118.09;;;1.31;100.00
40998;BME280;26740;45.944;12.480;2023-03-03T03:28:48;101120.81;;;1.31;100.00
40998;BME280;26740;45.944;12.480;2023-03-03T03:31:15;101121.06;;;1.22;100.00
40998;BME280;26740;45.944;12.480;2023-03-03T03:33:41;101120.22;;;1.21;100.00
40998;BME280;26740;45.944;12.480;2023-03-03T03:36:07;101112.91;;;1.37;100.00
40998;BME280;26740;45.944;12.480;2023-03-03T03:38:34;101116.69;;;1.36;100.00
40998;BME280;26740;45.944;12.480;2023-03-03T03:41:01;101115.34;;;1.31;100.00
40998;BME280;26740;45.944;12.480;2023-03-03T03:43:27;101123.22;;;1.11;100.00
40998;BME280;26740;45.944;12.480;2023-03-03T03:45:53;101108.78;;;1.03;100.00
40998;BME280;26740;45.944;12.480;2023-03-03T03:48:19;101112.16;;;1.05;100.00
40998;BME280;26740;45.944;12.480;2023-03-03T03:50:49;101105.28;;;1.09;100.00
40998;BME280;26740;45.944;12.480;2023-03-03T03:53:16;101111.72;;;1.16;100.00
40998;BME280;26740;45.944;12.480;2023-03-03T03:55:42;101105.78;;;1.12;100.00
40998;BME280;26740;45.944;12.480;2023-03-03T03:58:12;101104.28;;;1.10;100.00
40998;BME280;26740;45.944;12.480;2023-03-03T04:00:40;101102.19;;;1.12;100.00
40998;BME280;26740;45.944;12.480;2023-03-03T04:03:06;101108.38;;;1.06;100.00
40998;BME280;26740;45.944;12.480;2023-03-03T04:05:31;101101.59;;;1.02;100.00
40998;BME280;26740;45.944;12.480;2023-03-03T04:07:56;101091.91;;;1.14;100.00
40998;BME280;26740;45.944;12.480;2023-03-03T04:10:22;101101.84;;;1.30;100.00
40998;BME280;26740;45.944;12.480;2023-03-03T04:12:47;101100.53;;;1.26;100.00
40998;BME280;26740;45.944;12.480;2023-03-03T04:15:13;101097.50;;;1.21;100.00
40998;BME280;26740;45.944;12.480;2023-03-03T04:17:39;101095.13;;;1.18;100.00
40998;BME280;26740;45.944;12.480;2023-03-03T04:20:07;101086.94;;;1.18;100.00
40998;BME280;26740;45.944;12.480;2023-03-03T04:22:33;101092.34;;;1.26;100.00
40998;BME280;26740;45.944;12.480;2023-03-03T04:25:00;101083.78;;;1.06;100.00
40998;BME280;26740;45.944;12.480;2023-03-03T04:27:36;101086.16;;;1.09;100.00
40998;BME280;26740;45.944;12.480;2023-03-03T04:30:04;101089.72;;;1.09;100.00
40998;BME280;26740;45.944;12.480;2023-03-03T04:32:30;101081.25;;;1.04;100.00
40998;BME280;26740;45.944;12.480;2023-03-03T04:34:58;101075.16;;;1.17;100.00
40998;BME280;26740;45.944;12.480;2023-03-03T04:37:23;101084.84;;;1.20;100.00
40998;BME280;26740;45.944;12.480;2023-03-03T04:39:49;101087.75;;;1.03;100.00
40998;BME280;26740;45.944;12.480;2023-03-03T04:42:14;101090.00;;;1.00;100.00
40998;BME280;26740;45.944;12.480;2023-03-03T04:44:40;101088.06;;;0.85;100.00
40998;BME280;26740;45.944;12.480;2023-03-03T04:47:05;101075.53;;;0.68;100.00
40998;BME280;26740;45.944;12.480;2023-03-03T04:49:31;101085.31;;;0.62;100.00
40998;BME280;26740;45.944;12.480;2023-03-03T04:51:57;101070.69;;;0.55;100.00
40998;BME280;26740;45.944;12.480;2023-03-03T04:54:22;101076.16;;;0.55;100.00
40998;BME280;26740;45.944;12.480;2023-03-03T04:56:48;101072.44;;;0.48;100.00
40998;BME280;26740;45.944;12.480;2023-03-03T04:59:13;101071.22;;;0.50;100.00
40998;BME280;26740;45.944;12.480;2023-03-03T05:01:39;101072.72;;;0.53;100.00
40998;BME280;26740;45.944;12.480;2023-03-03T05:04:05;101075.78;;;0.58;100.00
40998;BME280;26740;45.944;12.480;2023-03-03T05:06:31;101077.13;;;0.62;100.00
40998;BME280;26740;45.944;12.480;2023-03-03T05:08:56;101061.22;;;0.43;100.00
40998;BME280;26740;45.944;12.480;2023-03-03T05:11:22;101074.00;;;0.42;100.00
40998;BME280;26740;45.944;12.480;2023-03-03T05:13:47;101069.41;;;0.43;100.00
40998;BME280;26740;45.944;12.480;2023-03-03T05:16:13;101079.28;;;0.44;100.00
40998;BME280;26740;45.944;12.480;2023-03-03T05:18:38;101078.94;;;0.70;100.00
40998;BME280;26740;45.944;12.480;2023-03-03T05:21:04;101087.28;;;0.77;100.00
40998;BME280;26740;45.944;12.480;2023-03-03T05:23:30;101086.47;;;0.45;100.00
40998;BME280;26740;45.944;12.480;2023-03-03T05:25:55;101086.81;;;0.42;100.00
40998;BME280;26740;45.944;12.480;2023-03-03T05:28:21;101091.56;;;0.48;100.00
40998;BME280;26740;45.944;12.480;2023-03-03T05:30:47;101090.34;;;0.50;100.00
40998;BME280;26740;45.944;12.480;2023-03-03T05:33:14;101098.84;;;0.24;100.00
40998;BME280;26740;45.944;12.480;2023-03-03T05:35:40;101095.00;;;0.42;100.00
40998;BME280;26740;45.944;12.480;2023-03-03T05:38:06;101091.00;;;0.21;100.00
40998;BME280;26740;45.944;12.480;2023-03-03T05:40:31;101095.00;;;0.10;100.00
40998;BME280;26740;45.944;12.480;2023-03-03T05:42:57;101090.41;;;0.11;100.00
40998;BME280;26740;45.944;12.480;2023-03-03T05:45:23;101094.66;;;0.13;100.00
40998;BME280;26740;45.944;12.480;2023-03-03T05:47:52;101100.75;;;0.24;100.00
40998;BME280;26740;45.944;12.480;2023-03-03T05:50:21;101109.19;;;0.37;100.00
40998;BME280;26740;45.944;12.480;2023-03-03T05:52:51;101107.81;;;0.41;100.00
40998;BME280;26740;45.944;12.480;2023-03-03T05:55:17;101113.63;;;0.38;100.00
40998;BME280;26740;45.944;12.480;2023-03-03T05:57:43;101121.66;;;0.40;100.00
40998;BME280;26740;45.944;12.480;2023-03-03T06:00:11;101118.50;;;0.51;100.00
40998;BME280;26740;45.944;12.480;2023-03-03T06:02:37;101122.63;;;0.78;100.00
40998;BME280;26740;45.944;12.480;2023-03-03T06:05:03;101127.34;;;1.07;100.00
40998;BME280;26740;45.944;12.480;2023-03-03T06:07:29;101131.53;;;1.41;100.00
40998;BME280;26740;45.944;12.480;2023-03-03T06:09:54;101129.28;;;1.75;100.00
40998;BME280;26740;45.944;12.480;2023-03-03T06:12:20;101135.44;;;1.92;100.00
40998;BME280;26740;45.944;12.480;2023-03-03T06:14:46;101136.94;;;2.24;100.00
40998;BME280;26740;45.944;12.480;2023-03-03T06:17:12;101139.16;;;2.50;100.00
40998;BME280;26740;45.944;12.480;2023-03-03T06:19:38;101145.81;;;2.77;100.00
40998;BME280;26740;45.944;12.480;2023-03-03T06:22:06;101153.91;;;2.85;100.00
40998;BME280;26740;45.944;12.480;2023-03-03T06:24:31;101147.41;;;3.08;100.00
40998;BME280;26740;45.944;12.480;2023-03-03T06:26:57;101162.00;;;3.37;100.00
40998;BME280;26740;45.944;12.480;2023-03-03T06:29:23;101154.31;;;3.75;100.00
40998;BME280;26740;45.944;12.480;2023-03-03T06:31:49;101152.28;;;4.19;100.00
40998;BME280;26740;45.944;12.480;2023-03-03T06:34:15;101159.16;;;4.43;100.00
40998;BME280;26740;45.944;12.480;2023-03-03T06:36:40;101153.03;;;5.09;100.00
40998;BME280;26740;45.944;12.480;2023-03-03T06:39:06;101160.69;;;5.41;100.00
40998;BME280;26740;45.944;12.480;2023-03-03T06:41:31;101169.16;;;5.73;100.00
40998;BME280;26740;45.944;12.480;2023-03-03T06:43:59;101164.69;;;6.12;100.00
40998;BME280;26740;45.944;12.480;2023-03-03T06:46:25;101170.00;;;5.93;100.00
40998;BME280;26740;45.944;12.480;2023-03-03T06:48:51;101169.75;;;6.28;100.00
40998;BME280;26740;45.944;12.480;2023-03-03T06:51:50;101173.59;;;6.27;100.00
40998;BME280;26740;45.944;12.480;2023-03-03T06:54:19;101173.97;;;6.37;100.00
40998;BME280;26740;45.944;12.480;2023-03-03T06:56:45;101178.66;;;6.89;100.00
40998;BME280;26740;45.944;12.480;2023-03-03T06:59:15;101182.38;;;7.08;100.00
40998;BME280;26740;45.944;12.480;2023-03-03T07:01:42;101186.53;;;6.85;100.00
40998;BME280;26740;45.944;12.480;2023-03-03T07:06:41;101189.97;;;7.76;100.00
40998;BME280;26740;45.944;12.480;2023-03-03T07:09:27;101191.22;;;8.24;100.00
40998;BME280;26740;45.944;12.480;2023-03-03T07:12:01;101190.28;;;8.73;100.00
40998;BME280;26740;45.944;12.480;2023-03-03T07:14:32;101195.50;;;9.12;100.00
40998;BME280;26740;45.944;12.480;2023-03-03T07:17:03;101193.44;;;10.15;100.00
40998;BME280;26740;45.944;12.480;2023-03-03T07:19:33;101191.75;;;10.50;100.00
40998;BME280;26740;45.944;12.480;2023-03-03T07:22:17;101195.69;;;11.18;100.00
40998;BME280;26740;45.944;12.480;2023-03-03T07:25:08;101200.22;;;11.70;100.00
40998;BME280;26740;45.944;12.480;2023-03-03T07:27:42;101201.00;;;11.65;100.00
40998;BME280;26740;45.944;12.480;2023-03-03T07:30:28;101194.47;;;11.43;100.00
40998;BME280;26740;45.944;12.480;2023-03-03T07:32:56;101200.13;;;11.48;100.00
40998;BME280;26740;45.944;12.480;2023-03-03T07:35:40;101202.66;;;11.66;100.00
40998;BME280;26740;45.944;12.480;2023-03-03T07:40:51;101201.66;;;10.34;100.00
40998;BME280;26740;45.944;12.480;2023-03-03T07:44:05;101205.16;;;10.17;100.00
40998;BME280;26740;45.944;12.480;2023-03-03T07:46:43;101198.16;;;10.27;100.00
40998;BME280;26740;45.944;12.480;2023-03-03T07:49:31;101198.81;;;10.81;100.00
40998;BME280;26740;45.944;12.480;2023-03-03T07:51:58;101200.59;;;10.35;100.00
40998;BME280;26740;45.944;12.480;2023-03-03T07:54:42;101214.44;;;10.11;100.00
40998;BME280;26740;45.944;12.480;2023-03-03T08:05:50;101213.69;;;10.75;100.00
40998;BME280;26740;45.944;12.480;2023-03-03T08:08:27;101219.97;;;10.70;100.00
40998;BME280;26740;45.944;12.480;2023-03-03T08:11:01;101210.22;;;11.08;100.00
40998;BME280;26740;45.944;12.480;2023-03-03T08:18:41;101212.84;;;10.74;100.00
40998;BME280;26740;45.944;12.480;2023-03-03T08:23:41;101224.06;;;11.20;100.00
40998;BME280;26740;45.944;12.480;2023-03-03T08:26:07;101210.75;;;11.22;100.00
40998;BME280;26740;45.944;12.480;2023-03-03T08:28:34;101227.34;;;11.46;100.00
40998;BME280;26740;45.944;12.480;2023-03-03T08:30:59;101222.25;;;11.71;100.00
40998;BME280;26740;45.944;12.480;2023-03-03T08:33:25;101223.13;;;11.43;100.00
40998;BME280;26740;45.944;12.480;2023-03-03T08:35:50;101224.66;;;11.97;100.00
40998;BME280;26740;45.944;12.480;2023-03-03T08:38:19;101229.28;;;12.08;100.00
40998;BME280;26740;45.944;12.480;2023-03-03T08:40:45;101218.94;;;12.42;100.00
40998;BME280;26740;45.944;12.480;2023-03-03T08:43:12;101222.16;;;12.51;100.00
40998;BME280;26740;45.944;12.480;2023-03-03T08:45:43;101225.28;;;12.99;100.00
40998;BME280;26740;45.944;12.480;2023-03-03T08:48:09;101223.81;;;13.35;100.00
40998;BME280;26740;45.944;12.480;2023-03-03T08:50:35;101220.03;;;13.74;100.00
40998;BME280;26740;45.944;12.480;2023-03-03T08:53:01;101231.94;;;13.15;96.52
40998;BME280;26740;45.944;12.480;2023-03-03T08:55:26;101225.44;;;13.31;97.67
40998;BME280;26740;45.944;12.480;2023-03-03T08:57:52;101229.25;;;13.47;100.00
40998;BME280;26740;45.944;12.480;2023-03-03T09:00:18;101232.63;;;13.49;92.39
40998;BME280;26740;45.944;12.480;2023-03-03T09:02:44;101237.44;;;14.18;93.84
40998;BME280;26740;45.944;12.480;2023-03-03T09:05:09;101238.75;;;14.48;88.41
40998;BME280;26740;45.944;12.480;2023-03-03T09:07:36;101232.34;;;14.10;83.38
40998;BME280;26740;45.944;12.480;2023-03-03T09:10:02;101242.81;;;13.65;78.43
40998;BME280;26740;45.944;12.480;2023-03-03T09:12:42;101243.97;;;13.97;84.59
40998;BME280;26740;45.944;12.480;2023-03-03T09:17:40;101249.06;;;14.05;78.57
40998;BME280;26740;45.944;12.480;2023-03-03T09:20:37;101253.56;;;14.49;75.43
40998;BME280;26740;45.944;12.480;2023-03-03T09:25:48;101246.19;;;15.28;70.91
40998;BME280;26740;45.944;12.480;2023-03-03T09:28:28;101253.66;;;16.01;65.92
40998;BME280;26740;45.944;12.480;2023-03-03T09:30:59;101245.06;;;15.24;65.15
40998;BME280;26740;45.944;12.480;2023-03-03T09:33:30;101248.88;;;15.02;68.38
40998;BME280;26740;45.944;12.480;2023-03-03T09:36:27;101256.41;;;16.57;65.25
40998;BME280;26740;45.944;12.480;2023-03-03T09:38:55;101249.94;;;16.88;68.36
40998;BME280;26740;45.944;12.480;2023-03-03T09:44:57;101255.09;;;17.25;61.77
40998;BME280;26740;45.944;12.480;2023-03-03T09:47:46;101248.19;;;17.57;60.40
40998;BME280;26740;45.944;12.480;2023-03-03T09:50:40;101252.34;;;17.65;54.20
40998;BME280;26740;45.944;12.480;2023-03-03T09:53:45;101267.31;;;16.84;61.33
40998;BME280;26740;45.944;12.480;2023-03-03T09:56:29;101256.13;;;17.94;62.27
40998;BME280;26740;45.944;12.480;2023-03-03T10:20:51;101266.47;;;14.17;69.97
40998;BME280;26740;45.944;12.480;2023-03-03T10:28:54;101271.19;;;14.17;69.78
40998;BME280;26740;45.944;12.480;2023-03-03T10:31:48;101269.72;;;15.42;65.62
40998;BME280;26740;45.944;12.480;2023-03-03T10:37:23;101274.34;;;16.56;65.61
40998;BME280;26740;45.944;12.480;2023-03-03T10:51:02;101276.31;;;16.66;63.84
40998;BME280;26740;45.944;12.480;2023-03-03T10:58:55;101264.84;;;16.11;64.14
40998;BME280;26740;45.944;12.480;2023-03-03T11:12:26;101255.06;;;14.24;69.05
40998;BME280;26740;45.944;12.480;2023-03-03T11:20:39;101245.75;;;14.88;70.84
40998;BME280;26740;45.944;12.480;2023-03-03T11:26:07;101242.97;;;14.93;66.33
40998;BME280;26740;45.944;12.480;2023-03-03T11:31:26;101250.00;;;15.01;64.13
40998;BME280;26740;45.944;12.480;2023-03-03T11:36:38;101237.78;;;14.27;68.23
40998;BME280;26740;45.944;12.480;2023-03-03T11:39:13;101240.84;;;14.63;66.54
40998;BME280;26740;45.944;12.480;2023-03-03T11:44:23;101234.72;;;14.29;67.79
40998;BME280;26740;45.944;12.480;2023-03-03T11:49:49;101226.09;;;14.73;68.89
40998;BME280;26740;45.944;12.480;2023-03-03T11:52:28;101232.44;;;14.26;72.97
40998;BME280;26740;45.944;12.480;2023-03-03T11:57:50;101224.75;;;14.86;67.49
40998;BME280;26740;45.944;12.480;2023-03-03T12:19:42;101218.84;;;14.82;64.51
40998;BME280;26740;45.944;12.480;2023-03-03T12:27:09;101219.47;;;14.94;68.14
40998;BME280;26740;45.944;12.480;2023-03-03T12:35:47;101210.22;;;15.78;63.71
40998;BME280;26740;45.944;12.480;2023-03-03T12:38:37;101211.63;;;15.80;65.29
40998;BME280;26740;45.944;12.480;2023-03-03T12:41:33;101205.75;;;14.88;70.04
40998;BME280;26740;45.944;12.480;2023-03-03T12:44:17;101203.16;;;13.91;68.25
40998;BME280;26740;45.944;12.480;2023-03-03T12:46:53;101203.56;;;13.45;79.92
40998;BME280;26740;45.944;12.480;2023-03-03T12:55:15;101196.53;;;13.15;83.70
40998;BME280;26740;45.944;12.480;2023-03-03T13:16:10;101195.06;;;13.62;78.40
40998;BME280;26740;45.944;12.480;2023-03-03T13:28:56;101193.38;;;15.67;65.65
40998;BME280;26740;45.944;12.480;2023-03-03T13:31:32;101195.88;;;16.36;63.98
40998;BME280;26740;45.944;12.480;2023-03-03T13:33:59;101199.22;;;16.48;67.45
40998;BME280;26740;45.944;12.480;2023-03-03T13:36:33;101195.66;;;17.13;61.53
40998;BME280;26740;45.944;12.480;2023-03-03T13:39:18;101189.09;;;18.12;61.88
40998;BME280;26740;45.944;12.480;2023-03-03T13:44:41;101184.34;;;17.73;58.99
40998;BME280;26740;45.944;12.480;2023-03-03T13:50:02;101184.72;;;17.16;63.42
40998;BME280;26740;45.944;12.480;2023-03-03T13:58:13;101174.06;;;15.66;63.62
40998;BME280;26740;45.944;12.480;2023-03-03T14:00:56;101170.88;;;15.06;66.76
40998;BME280;26740;45.944;12.480;2023-03-03T14:06:22;101164.78;;;16.37;70.75
40998;BME280;26740;45.944;12.480;2023-03-03T14:17:08;101154.97;;;18.24;60.08
40998;BME280;26740;45.944;12.480;2023-03-03T14:19:43;101154.09;;;18.52;58.41
40998;BME280;26740;45.944;12.480;2023-03-03T14:25:00;101147.16;;;17.52;59.24
40998;BME280;26740;45.944;12.480;2023-03-03T14:27:36;101140.00;;;17.30;58.84
40998;BME280;26740;45.944;12.480;2023-03-03T14:30:38;101149.34;;;17.60;59.03
40998;BME280;26740;45.944;12.480;2023-03-03T14:36:18;101147.25;;;17.36;65.03
40998;BME280;26740;45.944;12.480;2023-03-03T14:38:22;101150.66;;;16.78;64.76
40998;BME280;26740;45.944;12.480;2023-03-03T14:40:49;101146.88;;;17.09;62.98
40998;BME280;26740;45.944;12.480;2023-03-03T14:43:39;101137.09;;;17.80;60.88
40998;BME280;26740;45.944;12.480;2023-03-03T14:46:30;101147.47;;;18.14;58.73
40998;BME280;26740;45.944;12.480;2023-03-03T14:49:01;101141.41;;;18.02;56.95
40998;BME280;26740;45.944;12.480;2023-03-03T14:51:32;101143.78;;;17.84;57.19
40998;BME280;26740;45.944;12.480;2023-03-03T14:54:10;101142.09;;;17.49;55.01
40998;BME280;26740;45.944;12.480;2023-03-03T14:56:57;101130.66;;;17.40;57.84
40998;BME280;26740;45.944;12.480;2023-03-03T14:59:25;101141.28;;;17.09;57.13
40998;BME280;26740;45.944;12.480;2023-03-03T15:02:02;101140.56;;;16.72;59.17
40998;BME280;26740;45.944;12.480;2023-03-03T15:04:33;101137.28;;;16.44;59.11
40998;BME280;26740;45.944;12.480;2023-03-03T15:07:18;101133.94;;;16.42;59.76
40998;BME280;26740;45.944;12.480;2023-03-03T15:09:48;101129.81;;;15.99;64.90
40998;BME280;26740;45.944;12.480;2023-03-03T15:14:48;101124.16;;;15.01;63.50
40998;BME280;26740;45.944;12.480;2023-03-03T15:17:26;101133.94;;;14.98;67.64
40998;BME280;26740;45.944;12.480;2023-03-03T15:23:27;101133.38;;;14.91;68.11
40998;BME280;26740;45.944;12.480;2023-03-03T15:34:17;101136.78;;;15.24;63.82
40998;BME280;26740;45.944;12.480;2023-03-03T15:42:23;101138.19;;;15.42;63.76
40998;BME280;26740;45.944;12.480;2023-03-03T15:45:00;101143.25;;;15.25;62.80
40998;BME280;26740;45.944;12.480;2023-03-03T16:04:20;101129.94;;;14.21;68.23
40998;BME280;26740;45.944;12.480;2023-03-03T16:09:39;101130.91;;;13.99;69.55
40998;BME280;26740;45.944;12.480;2023-03-03T16:15:15;101127.88;;;13.69;72.52
40998;BME280;26740;45.944;12.480;2023-03-03T16:18:17;101134.66;;;13.45;74.44
40998;BME280;26740;45.944;12.480;2023-03-03T16:23:38;101130.53;;;13.26;77.05
40998;BME280;26740;45.944;12.480;2023-03-03T16:26:26;101144.13;;;13.17;76.87
40998;BME280;26740;45.944;12.480;2023-03-03T16:29:02;101145.06;;;13.01;82.91
40998;BME280;26740;45.944;12.480;2023-03-03T16:31:44;101139.47;;;13.28;80.05
40998;BME280;26740;45.944;12.480;2023-03-03T16:34:18;101147.41;;;13.36;81.41
40998;BME280;26740;45.944;12.480;2023-03-03T16:37:17;101147.53;;;13.24;81.34
40998;BME280;26740;45.944;12.480;2023-03-03T16:42:29;101152.50;;;12.51;89.44
40998;BME280;26740;45.944;12.480;2023-03-03T16:45:40;101158.72;;;12.36;87.63
40998;BME280;26740;45.944;12.480;2023-03-03T17:02:24;101182.69;;;11.07;99.39
40998;BME280;26740;45.944;12.480;2023-03-03T17:05:15;101188.34;;;11.12;98.13
40998;BME280;26740;45.944;12.480;2023-03-03T17:10:31;101191.63;;;10.44;100.00
40998;BME280;26740;45.944;12.480;2023-03-03T17:18:13;101199.34;;;10.07;100.00
40998;BME280;26740;45.944;12.480;2023-03-03T17:21:00;101206.00;;;10.06;100.00
40998;BME280;26740;45.944;12.480;2023-03-03T17:26:35;101220.91;;;9.70;100.00
40998;BME280;26740;45.944;12.480;2023-03-03T17:34:24;101219.47;;;9.37;100.00
40998;BME280;26740;45.944;12.480;2023-03-03T17:45:20;101237.78;;;8.89;100.00
40998;BME280;26740;45.944;12.480;2023-03-03T18:20:55;101272.75;;;7.96;100.00
40998;BME280;26740;45.944;12.480;2023-03-03T18:23:48;101275.38;;;7.59;100.00
40998;BME280;26740;45.944;12.480;2023-03-03T18:26:39;101281.59;;;7.41;100.00
40998;BME280;26740;45.944;12.480;2023-03-03T18:29:25;101281.50;;;7.22;100.00
40998;BME280;26740;45.944;12.480;2023-03-03T18:44:40;101294.50;;;7.09;100.00